Time;durP1;ratioP1;P1;durP2;ratioP2;P2;SDS_P1;SDS_P2;PMS_P1;PMS_P2;Temp;Humidity;BMP_temperature;BMP_pressure;BME280_temperature;BME280_humidity;BME280_pressure;Samples;Min_cycle;Max_cycle;Signal;HPM_P1;HPM_P2
2022/02/25 00:01:59;;;;;;;;;;;22.20;44.70;;;;;;5156361;27;19924;-42
2022/02/25 00:04:27;;;;;;;;;;;22.20;44.70;;;;;;5158032;27;19923;-45
2022/02/25 00:06:54;;;;;;;;;;;22.20;44.80;;;;;;5157120;27;19968;-43
2022/02/25 00:09:21;;;;;;;;;;;22.20;44.80;;;;;;5158032;27;19923;-46
2022/02/25 00:11:48;;;;;;;;;;;22.20;44.80;;;;;;5139369;27;19969;-43
2022/02/25 00:14:15;;;;;;;;;;;22.20;44.70;;;;;;5139292;27;20397;-45
2022/02/25 00:16:44;;;;;;;;;;;22.20;44.70;;;;;;5156462;27;20380;-43
2022/02/25 00:19:12;;;;;;;;;;;22.20;44.80;;;;;;5157496;27;19972;-42
2022/02/25 00:21:39;;;;;;;;;;;22.20;44.80;;;;;;5156699;27;20004;-42
2022/02/25 00:24:08;;;;;;;;;;;22.20;45.40;;;;;;5157643;27;20332;-42
2022/02/25 00:26:35;;;;;;;;;;;22.20;44.70;;;;;;5157349;27;20390;-43
2022/02/25 00:29:04;;;;;;;;;;;22.20;44.70;;;;;;5157663;27;19966;-42
2022/02/25 00:31:31;;;;;;;;;;;22.20;44.70;;;;;;5156313;27;19923;-44
2022/02/25 00:33:58;;;;;;;;;;;22.20;44.70;;;;;;5139222;27;19923;-42
2022/02/25 00:36:26;;;;;;;;;;;22.20;44.70;;;;;;5157024;27;19927;-45
2022/02/25 00:38:54;;;;;;;;;;;22.20;44.70;;;;;;5135971;27;19931;-44
2022/02/25 00:41:21;;;;;;;;;;;22.20;44.70;;;;;;5136692;27;19929;-42
2022/02/25 00:43:50;;;;;;;;;;;22.20;44.70;;;;;;5136268;27;19923;-45
2022/02/25 00:46:17;;;;;;;;;;;22.20;44.70;;;;;;5135539;27;19930;-43
2022/02/25 00:48:45;;;;;;;;;;;22.20;44.70;;;;;;5136219;27;19930;-46
2022/02/25 00:51:12;;;;;;;;;;;22.20;44.70;;;;;;5135858;27;19927;-45
2022/02/25 00:53:39;;;;;;;;;;;22.20;44.70;;;;;;5153431;27;20018;-42
2022/02/25 00:56:06;;;;;;;;;;;22.20;44.70;;;;;;5156803;27;19941;-46
2022/02/25 00:58:33;;;;;;;;;;;22.20;44.70;;;;;;5157055;27;19970;-41
2022/02/25 01:01:00;;;;;;;;;;;22.20;44.70;;;;;;5155917;27;19979;-45
2022/02/25 01:03:27;;;;;;;;;;;22.20;44.70;;;;;;5138255;27;19923;-43
2022/02/25 01:05:56;;;;;;;;;;;22.10;44.60;;;;;;5138703;27;19966;-42
2022/02/25 01:08:25;;;;;;;;;;;22.10;44.60;;;;;;5155814;27;19923;-44
2022/02/25 01:10:52;;;;;;;;;;;22.10;44.60;;;;;;5156480;27;20405;-45
2022/02/25 01:13:19;;;;;;;;;;;22.10;44.60;;;;;;5156412;27;20018;-43
2022/02/25 01:15:46;;;;;;;;;;;22.10;44.60;;;;;;5155815;27;19923;-43
2022/02/25 01:18:14;;;;;;;;;;;22.10;44.60;;;;;;5138112;27;19923;-44
2022/02/25 01:20:41;;;;;;;;;;;22.10;44.60;;;;;;5156539;27;19928;-45
2022/02/25 01:23:09;;;;;;;;;;;22.10;44.60;;;;;;5137350;27;20010;-43
2022/02/25 01:25:37;;;;;;;;;;;22.10;44.60;;;;;;5156448;27;19971;-44
2022/02/25 01:28:05;;;;;;;;;;;22.10;44.60;;;;;;5156442;27;19927;-43
2022/02/25 01:30:32;;;;;;;;;;;22.10;44.50;;;;;;5156448;27;19923;-45
2022/02/25 01:32:59;;;;;;;;;;;22.10;44.60;;;;;;5155026;27;20335;-44
2022/02/25 01:35:26;;;;;;;;;;;22.20;44.60;;;;;;5156313;27;19927;-43
2022/02/25 01:37:53;;;;;;;;;;;22.10;44.60;;;;;;5155545;27;19927;-42
2022/02/25 01:40:22;;;;;;;;;;;22.10;44.60;;;;;;5155878;27;20009;-43
2022/02/25 01:42:51;;;;;;;;;;;22.10;44.50;;;;;;5156180;27;19945;-41
2022/02/25 01:45:18;;;;;;;;;;;22.10;44.50;;;;;;5137723;27;19927;-44
2022/02/25 01:47:46;;;;;;;;;;;22.10;44.60;;;;;;5155089;27;19975;-42
2022/02/25 01:50:14;;;;;;;;;;;22.10;44.60;;;;;;5154934;27;20375;-43
2022/02/25 01:53:02;;;;;;;;;;;22.10;44.60;;;;;;5155124;27;19927;-43
2022/02/25 01:55:30;;;;;;;;;;;22.20;44.60;;;;;;5155711;27;19923;-42
2022/02/25 01:57:57;;;;;;;;;;;22.10;44.60;;;;;;5155943;27;19930;-47
2022/02/25 02:00:24;;;;;;;;;;;22.10;44.60;;;;;;5156458;27;19927;-43
2022/02/25 02:02:51;;;;;;;;;;;22.10;44.50;;;;;;5136723;27;19969;-43
2022/02/25 02:05:19;;;;;;;;;;;22.10;44.60;;;;;;5155741;27;19929;-47
2022/02/25 02:07:46;;;;;;;;;;;22.10;44.60;;;;;;5154652;27;19962;-45
2022/02/25 02:10:13;;;;;;;;;;;22.10;44.60;;;;;;5137174;27;19923;-46
2022/02/25 02:12:40;;;;;;;;;;;22.10;44.60;;;;;;5155710;27;19987;-51
2022/02/25 02:15:08;;;;;;;;;;;22.10;44.50;;;;;;5155337;27;19923;-43
2022/02/25 02:17:36;;;;;;;;;;;22.10;44.50;;;;;;5154570;27;19923;-42
2022/02/25 02:20:04;;;;;;;;;;;22.10;44.50;;;;;;5155073;27;19991;-44
2022/02/25 02:22:31;;;;;;;;;;;22.10;44.60;;;;;;5155406;27;19923;-41
2022/02/25 02:25:01;;;;;;;;;;;22.10;44.50;;;;;;5153926;27;20134;-43
2022/02/25 02:28:17;;;;;;;;;;;22.10;44.50;;;;;;5155514;27;19966;-42
2022/02/25 02:30:16;;;;;;;;;;;22.10;44.60;;;;;;5155192;27;19962;-42
2022/02/25 02:32:42;;;;;;;;;;;22.10;44.60;;;;;;5154097;27;19966;-44
2022/02/25 02:35:09;;;;;;;;;;;22.10;44.60;;;;;;5155142;27;19927;-42
2022/02/25 02:37:36;;;;;;;;;;;22.10;44.60;;;;;;5155110;27;19927;-42
2022/02/25 02:40:05;;;;;;;;;;;22.10;44.60;;;;;;5154671;27;19927;-42
2022/02/25 02:42:33;;;;;;;;;;;22.10;44.60;;;;;;5155075;27;20382;-42
2022/02/25 02:45:01;;;;;;;;;;;22.10;44.60;;;;;;5155025;27;19923;-44
2022/02/25 02:47:28;;;;;;;;;;;22.10;44.60;;;;;;5154218;27;19923;-43
2022/02/25 02:49:55;;;;;;;;;;;22.10;44.60;;;;;;5155256;27;20335;-42
2022/02/25 02:52:23;;;;;;;;;;;22.10;44.60;;;;;;5155151;27;19967;-43
2022/02/25 02:54:50;;;;;;;;;;;22.10;44.60;;;;;;5154239;27;20450;-42
2022/02/25 02:57:20;;;;;;;;;;;22.10;44.60;;;;;;5155261;27;19923;-44
2022/02/25 02:59:47;;;;;;;;;;;22.10;44.60;;;;;;5154933;27;19923;-42
2022/02/25 03:02:14;;;;;;;;;;;22.10;44.60;;;;;;5138473;27;19927;-42
2022/02/25 03:04:41;;;;;;;;;;;22.10;44.50;;;;;;5159224;27;20327;-44
2022/02/25 03:07:10;;;;;;;;;;;22.10;44.50;;;;;;5158938;27;19923;-41
2022/02/25 03:09:38;;;;;;;;;;;22.10;44.60;;;;;;5158157;27;19976;-42
2022/02/25 03:12:05;;;;;;;;;;;22.10;44.50;;;;;;5158870;27;20398;-42
2022/02/25 03:14:33;;;;;;;;;;;22.10;44.50;;;;;;5158827;27;19923;-42
2022/02/25 03:17:00;;;;;;;;;;;22.10;44.60;;;;;;5158286;27;20028;-46
2022/02/25 03:19:27;;;;;;;;;;;22.10;44.50;;;;;;5158136;27;20406;-43
2022/02/25 03:21:54;;;;;;;;;;;22.10;44.50;;;;;;5140125;27;20445;-42
2022/02/25 03:24:20;;;;;;;;;;;22.10;44.50;;;;;;5158094;27;20030;-43
2022/02/25 03:26:48;;;;;;;;;;;22.10;44.60;;;;;;5158911;27;20014;-44
2022/02/25 03:29:15;;;;;;;;;;;22.10;44.60;;;;;;5158821;27;19923;-42
2022/02/25 03:31:42;;;;;;;;;;;22.10;44.60;;;;;;5158760;27;19991;-42
2022/02/25 03:34:09;;;;;;;;;;;22.10;44.60;;;;;;5157240;27;19923;-41
2022/02/25 03:36:36;;;;;;;;;;;22.10;44.60;;;;;;5140048;27;20033;-43
2022/02/25 03:39:04;;;;;;;;;;;22.10;44.60;;;;;;5157541;27;19963;-42
2022/02/25 03:41:31;;;;;;;;;;;22.10;44.60;;;;;;5158260;27;19930;-41
2022/02/25 03:43:59;;;;;;;;;;;22.00;44.50;;;;;;5139890;27;19926;-44
2022/02/25 03:46:26;;;;;;;;;;;22.00;44.50;;;;;;5158093;27;19930;-44
2022/02/25 03:48:53;;;;;;;;;;;22.00;44.50;;;;;;5156923;27;19937;-41
2022/02/25 03:51:23;;;;;;;;;;;22.00;44.50;;;;;;5158097;27;19959;-42
2022/02/25 03:53:50;;;;;;;;;;;22.00;44.50;;;;;;5157609;27;19959;-43
2022/02/25 03:56:17;;;;;;;;;;;22.00;44.50;;;;;;5158258;27;19923;-43
2022/02/25 03:58:44;;;;;;;;;;;22.00;44.60;;;;;;5158253;27;19992;-41
2022/02/25 04:01:11;;;;;;;;;;;22.00;44.50;;;;;;5139550;27;19923;-42
2022/02/25 04:03:39;;;;;;;;;;;22.00;44.50;;;;;;5156671;27;20386;-42
2022/02/25 04:06:06;;;;;;;;;;;22.00;44.50;;;;;;5158051;27;19923;-43
2022/02/25 04:08:33;;;;;;;;;;;22.00;44.60;;;;;;5157977;27;20378;-41
2022/02/25 04:11:00;;;;;;;;;;;22.00;44.60;;;;;;5156941;27;19973;-42
2022/02/25 04:13:27;;;;;;;;;;;22.00;44.60;;;;;;5157258;27;19923;-42
2022/02/25 04:15:54;;;;;;;;;;;22.00;44.60;;;;;;5157607;27;20030;-47
2022/02/25 04:18:21;;;;;;;;;;;22.00;44.60;;;;;;5156207;27;19923;-41
2022/02/25 04:20:48;;;;;;;;;;;22.00;44.60;;;;;;5157732;27;19923;-41
2022/02/25 04:23:15;;;;;;;;;;;22.00;44.60;;;;;;5157576;27;19972;-42
2022/02/25 04:25:42;;;;;;;;;;;22.00;44.60;;;;;;5156557;27;20421;-42
2022/02/25 04:28:09;;;;;;;;;;;22.00;44.60;;;;;;5157369;27;19970;-42
2022/02/25 04:30:36;;;;;;;;;;;22.00;44.60;;;;;;5157298;27;19973;-43
2022/02/25 04:33:04;;;;;;;;;;;22.00;44.60;;;;;;5156081;27;20394;-44
2022/02/25 04:35:33;;;;;;;;;;;22.00;44.60;;;;;;5157538;27;19923;-43
2022/02/25 04:38:00;;;;;;;;;;;22.00;45.20;;;;;;5157218;27;19976;-47
2022/02/25 04:40:27;;;;;;;;;;;22.00;44.60;;;;;;5156336;27;19927;-42
2022/02/25 04:42:54;;;;;;;;;;;22.00;44.60;;;;;;5157437;27;19927;-43
2022/02/25 04:45:21;;;;;;;;;;;22.00;44.60;;;;;;5157257;27;19985;-45
2022/02/25 04:47:48;;;;;;;;;;;22.00;44.60;;;;;;5157050;27;19972;-44
2022/02/25 04:50:16;;;;;;;;;;;22.00;44.60;;;;;;5156079;27;19923;-42
2022/02/25 04:52:43;;;;;;;;;;;22.00;44.60;;;;;;5157028;27;19992;-42
2022/02/25 04:55:11;;;;;;;;;;;22.00;44.60;;;;;;5156428;27;19923;-43
2022/02/25 04:57:39;;;;;;;;;;;22.00;44.60;;;;;;5156819;27;19923;-42
2022/02/25 05:00:10;;;;;;;;;;;22.00;44.60;;;;;;5157077;27;20378;-45
2022/02/25 05:02:45;;;;;;;;;;;21.90;44.50;;;;;;5156731;27;19923;-43
2022/02/25 05:05:13;;;;;;;;;;;21.90;44.60;;;;;;5155516;27;20438;-42
2022/02/25 05:07:41;;;;;;;;;;;21.90;44.60;;;;;;5156916;27;20335;-45
2022/02/25 05:10:09;;;;;;;;;;;21.90;44.60;;;;;;5156085;27;19968;-44
2022/02/25 05:12:36;;;;;;;;;;;21.90;44.60;;;;;;5156817;27;19927;-42
2022/02/25 05:20:34;;;;;;;;;;;21.90;44.50;;;;;;5155173;27;19976;-45
2022/02/25 05:23:02;;;;;;;;;;;21.90;44.50;;;;;;5156087;27;20394;-42
2022/02/25 05:25:30;;;;;;;;;;;21.90;44.50;;;;;;5155050;27;19923;-44
2022/02/25 05:27:57;;;;;;;;;;;21.90;44.60;;;;;;5156528;27;19986;-41
2022/02/25 05:30:25;;;;;;;;;;;21.90;44.60;;;;;;5156476;27;19923;-42
2022/02/25 05:32:52;;;;;;;;;;;21.90;44.60;;;;;;5156403;27;19972;-42
2022/02/25 05:35:20;;;;;;;;;;;21.90;44.60;;;;;;5155145;27;19923;-44
2022/02/25 05:37:49;;;;;;;;;;;21.90;44.60;;;;;;5156011;27;19923;-44
2022/02/25 05:40:17;;;;;;;;;;;21.90;44.60;;;;;;5155471;27;20279;-45
2022/02/25 05:42:45;;;;;;;;;;;21.90;44.60;;;;;;5156573;27;19923;-41
2022/02/25 05:45:12;;;;;;;;;;;21.90;44.60;;;;;;5156103;27;19924;-43
2022/02/25 05:47:40;;;;;;;;;;;21.90;44.60;;;;;;5156112;27;19923;-43
2022/02/25 05:50:08;;;;;;;;;;;21.90;44.60;;;;;;5154916;27;19927;-43
2022/02/25 05:52:36;;;;;;;;;;;21.90;44.60;;;;;;5155577;27;19948;-43
2022/02/25 05:55:03;;;;;;;;;;;21.90;44.60;;;;;;5155555;27;20332;-48
2022/02/25 05:57:30;;;;;;;;;;;21.90;44.60;;;;;;5155788;27;19930;-42
2022/02/25 05:59:57;;;;;;;;;;;21.90;44.60;;;;;;5155929;27;19934;-43
2022/02/25 06:02:24;;;;;;;;;;;21.90;44.50;;;;;;5155599;27;20382;-42
2022/02/25 06:04:52;;;;;;;;;;;21.90;44.50;;;;;;5154628;27;19927;-45
2022/02/25 06:07:19;;;;;;;;;;;21.90;44.60;;;;;;5155815;27;19987;-44
2022/02/25 06:09:46;;;;;;;;;;;21.90;44.60;;;;;;5137519;27;19975;-43
2022/02/25 06:12:13;;;;;;;;;;;21.90;44.60;;;;;;5154682;27;20416;-43
2022/02/25 06:14:40;;;;;;;;;;;21.90;44.60;;;;;;5155704;27;19971;-45
2022/02/25 06:17:07;;;;;;;;;;;21.90;44.60;;;;;;5155504;27;19923;-43
2022/02/25 06:19:34;;;;;;;;;;;21.90;44.60;;;;;;5154090;27;19983;-43
2022/02/25 06:22:02;;;;;;;;;;;21.90;44.60;;;;;;5155428;27;19923;-44
2022/02/25 06:24:29;;;;;;;;;;;21.90;44.60;;;;;;5155248;27;19930;-44
2022/02/25 06:26:56;;;;;;;;;;;21.90;44.50;;;;;;5154265;27;20413;-42
2022/02/25 06:29:23;;;;;;;;;;;21.90;44.50;;;;;;5155193;27;19967;-46
2022/02/25 06:31:50;;;;;;;;;;;21.90;44.50;;;;;;5155506;27;19923;-43
2022/02/25 06:34:17;;;;;;;;;;;21.90;44.50;;;;;;5154054;27;19952;-42
2022/02/25 06:36:44;;;;;;;;;;;21.90;44.50;;;;;;5157381;27;19923;-48
2022/02/25 06:39:12;;;;;;;;;;;21.90;44.50;;;;;;5159825;27;19923;-44
2022/02/25 06:41:39;;;;;;;;;;;21.90;44.50;;;;;;5159016;27;19927;-45
2022/02/25 06:46:52;;;;;;;;;;;21.90;44.50;;;;;;5159169;27;19934;-46
2022/02/25 06:49:19;;;;;;;;;;;21.90;44.40;;;;;;5158090;27;19974;-43
2022/02/25 06:51:46;;;;;;;;;;;21.90;44.40;;;;;;5159358;27;19923;-46
2022/02/25 06:54:13;;;;;;;;;;;21.90;44.40;;;;;;5159163;27;19966;-44
2022/02/25 06:56:40;;;;;;;;;;;21.90;44.40;;;;;;5158671;27;19926;-48
2022/02/25 06:59:10;;;;;;;;;;;21.90;44.40;;;;;;5159095;27;19923;-47
2022/02/25 07:01:37;;;;;;;;;;;21.90;44.30;;;;;;5159370;27;19966;-46
2022/02/25 07:04:04;;;;;;;;;;;21.90;44.30;;;;;;5159294;27;19923;-45
2022/02/25 07:06:37;;;;;;;;;;;21.90;44.30;;;;;;5157749;27;19927;-45
2022/02/25 07:09:05;;;;;;;;;;;22.00;44.40;;;;;;5159260;27;19923;-44
2022/02/25 07:11:33;;;;;;;;;;;22.00;44.30;;;;;;5158353;27;19923;-42
2022/02/25 07:14:00;;;;;;;;;;;22.00;44.30;;;;;;5158741;27;19968;-43
2022/02/25 07:16:27;;;;;;;;;;;22.00;44.30;;;;;;5158757;27;19923;-41
2022/02/25 07:18:54;;;;;;;;;;;22.00;44.30;;;;;;5158511;27;19923;-41
2022/02/25 07:21:21;;;;;;;;;;;22.00;44.30;;;;;;5157154;27;19927;-42
2022/02/25 07:23:48;;;;;;;;;;;22.00;44.30;;;;;;5158873;27;19923;-43
2022/02/25 07:26:18;;;;;;;;;;;22.00;44.30;;;;;;5157575;27;19930;-43
2022/02/25 07:28:45;;;;;;;;;;;22.00;44.20;;;;;;5158846;27;19962;-41
2022/02/25 07:31:12;;;;;;;;;;;22.00;44.20;;;;;;5140452;27;20338;-41
2022/02/25 07:33:40;;;;;;;;;;;22.00;44.20;;;;;;5158752;27;19975;-43
2022/02/25 07:36:07;;;;;;;;;;;22.00;44.20;;;;;;5157094;27;19972;-42
2022/02/25 07:38:34;;;;;;;;;;;22.00;44.10;;;;;;5158280;27;19966;-45
2022/02/25 07:41:01;;;;;;;;;;;22.00;44.10;;;;;;5158508;27;19946;-42
2022/02/25 07:43:28;;;;;;;;;;;22.00;44.10;;;;;;5157634;27;19923;-44
2022/02/25 07:45:55;;;;;;;;;;;22.00;44.10;;;;;;5139898;27;20303;-45
2022/02/25 07:48:23;;;;;;;;;;;22.00;44.10;;;;;;5157187;27;19923;-42
2022/02/25 07:50:50;;;;;;;;;;;22.00;44.10;;;;;;5156827;27;19930;-43
2022/02/25 07:53:17;;;;;;;;;;;22.00;44.10;;;;;;5139409;27;20374;-43
2022/02/25 07:55:45;;;;;;;;;;;22.00;44.10;;;;;;5157933;27;19968;-44
2022/02/25 07:58:13;;;;;;;;;;;22.00;44.10;;;;;;5157410;27;19968;-44
2022/02/25 08:00:40;;;;;;;;;;;22.00;44.10;;;;;;5157846;27;20013;-44
2022/02/25 08:03:07;;;;;;;;;;;22.00;44.00;;;;;;5157785;27;20442;-43
2022/02/25 08:05:36;;;;;;;;;;;22.10;44.10;;;;;;5156951;27;20341;-45
2022/02/25 08:08:04;;;;;;;;;;;22.10;44.00;;;;;;5158011;27;19972;-49
2022/02/25 08:10:34;;;;;;;;;;;22.10;44.00;;;;;;5157945;27;20388;-46
2022/02/25 08:13:02;;;;;;;;;;;22.10;43.90;;;;;;5157236;27;19962;-49
2022/02/25 08:15:33;;;;;;;;;;;22.10;43.90;;;;;;5157355;27;20014;-44
2022/02/25 08:18:01;;;;;;;;;;;22.10;43.90;;;;;;5157865;27;20029;-47
2022/02/25 08:20:31;;;;;;;;;;;22.10;43.90;;;;;;5138652;27;20026;-45
2022/02/25 08:23:00;;;;;;;;;;;22.10;43.80;;;;;;5138922;27;20390;-45
2022/02/25 08:25:28;;;;;;;;;;;22.10;43.80;;;;;;5157267;27;20013;-42
2022/02/25 08:27:56;;;;;;;;;;;22.20;43.80;;;;;;5156675;27;19950;-47
2022/02/25 08:30:23;;;;;;;;;;;22.20;43.80;;;;;;5157710;27;19962;-49
2022/02/25 08:32:50;;;;;;;;;;;22.20;43.80;;;;;;5157356;27;19966;-44
2022/02/25 08:35:18;;;;;;;;;;;22.20;43.70;;;;;;5156481;27;19923;-43
2022/02/25 08:37:47;;;;;;;;;;;22.20;43.60;;;;;;5139208;27;19923;-45
2022/02/25 08:40:14;;;;;;;;;;;22.20;43.60;;;;;;5157699;27;20354;-46
2022/02/25 08:42:42;;;;;;;;;;;22.30;43.60;;;;;;5138646;27;19927;-45
2022/02/25 08:45:10;;;;;;;;;;;22.30;43.60;;;;;;5157384;27;20275;-44
2022/02/25 08:47:38;;;;;;;;;;;22.30;43.60;;;;;;5157175;27;19975;-44
2022/02/25 08:50:06;;;;;;;;;;;22.30;43.50;;;;;;5157123;27;19989;-47
2022/02/25 08:52:33;;;;;;;;;;;22.40;43.60;;;;;;5155880;27;19983;-48
2022/02/25 08:55:00;;;;;;;;;;;22.30;43.40;;;;;;5147672;27;19958;-46
2022/02/25 08:57:27;;;;;;;;;;;22.40;43.50;;;;;;5156121;27;19965;-47
2022/02/25 08:59:54;;;;;;;;;;;22.40;43.40;;;;;;5145778;27;20348;-45
2022/02/25 09:02:21;;;;;;;;;;;22.40;43.40;;;;;;5137505;27;19923;-50
2022/02/25 09:04:49;;;;;;;;;;;22.40;43.40;;;;;;5139914;27;19923;-44
2022/02/25 09:07:17;;;;;;;;;;;22.40;43.30;;;;;;5149672;27;20389;-42
2022/02/25 09:09:44;;;;;;;;;;;22.40;43.30;;;;;;5156019;27;20041;-46
2022/02/25 09:12:12;;;;;;;;;;;22.50;43.30;;;;;;5148102;27;20018;-45
2022/02/25 09:14:39;;;;;;;;;;;22.50;43.20;;;;;;5154415;27;19923;-42
2022/02/25 09:17:07;;;;;;;;;;;22.50;43.20;;;;;;5142296;27;19946;-46
2022/02/25 09:19:34;;;;;;;;;;;22.50;43.20;;;;;;5135380;27;19931;-43
2022/02/25 09:22:02;;;;;;;;;;;22.50;43.20;;;;;;5139935;27;19976;-43
2022/02/25 09:24:30;;;;;;;;;;;22.50;43.10;;;;;;5135348;27;19955;-42
2022/02/25 09:26:57;;;;;;;;;;;22.50;43.10;;;;;;5135265;27;19935;-49
2022/02/25 09:29:24;;;;;;;;;;;22.60;43.20;;;;;;5148461;27;19930;-46
2022/02/25 09:31:51;;;;;;;;;;;22.60;43.20;;;;;;5137899;27;19954;-48
2022/02/25 09:34:19;;;;;;;;;;;22.60;43.10;;;;;;5155327;27;20251;-46
2022/02/25 09:36:46;;;;;;;;;;;22.60;43.10;;;;;;5154765;27;20332;-43
2022/02/25 09:39:17;;;;;;;;;;;22.60;43.10;;;;;;5155858;27;19923;-43
2022/02/25 09:41:45;;;;;;;;;;;22.60;43.20;;;;;;5156027;27;20344;-47
2022/02/25 09:44:12;;;;;;;;;;;22.70;43.40;;;;;;5153232;27;19973;-49
2022/02/25 09:46:39;;;;;;;;;;;22.70;43.40;;;;;;5147318;27;19976;-44
2022/02/25 09:49:06;;;;;;;;;;;22.70;43.40;;;;;;5150858;27;19975;-45
2022/02/25 09:51:33;;;;;;;;;;;22.70;43.40;;;;;;5147312;27;19945;-44
2022/02/25 09:54:00;;;;;;;;;;;22.70;43.50;;;;;;5117022;27;19987;-46
2022/02/25 09:56:29;;;;;;;;;;;22.70;43.50;;;;;;5134861;27;19972;-45
2022/02/25 09:58:57;;;;;;;;;;;22.70;43.50;;;;;;5143315;27;19930;-45
2022/02/25 10:01:32;;;;;;;;;;;22.70;43.50;;;;;;5155291;27;19963;-44
2022/02/25 10:04:09;;;;;;;;;;;22.70;43.60;;;;;;5155435;27;19923;-45
2022/02/25 10:06:36;;;;;;;;;;;22.70;43.60;;;;;;5154324;27;19927;-47
2022/02/25 10:09:21;;;;;;;;;;;22.70;43.60;;;;;;5155452;27;19923;-43
2022/02/25 10:12:03;;;;;;;;;;;22.60;43.60;;;;;;5155110;27;20286;-42
2022/02/25 10:14:31;;;;;;;;;;;22.60;43.70;;;;;;5154922;27;20010;-43
2022/02/25 10:17:17;;;;;;;;;;;22.60;43.70;;;;;;5155291;27;20011;-44
2022/02/25 10:19:47;;;;;;;;;;;22.60;43.70;;;;;;5136575;27;20378;-44
2022/02/25 10:22:22;;;;;;;;;;;22.60;43.80;;;;;;5153931;27;20019;-45
2022/02/25 10:24:49;;;;;;;;;;;22.60;43.80;;;;;;5155548;27;19923;-47
2022/02/25 10:27:17;;;;;;;;;;;22.50;43.70;;;;;;5155128;27;20334;-45
2022/02/25 10:29:55;;;;;;;;;;;22.50;43.70;;;;;;5136244;27;19968;-43
2022/02/25 10:32:31;;;;;;;;;;;22.50;43.70;;;;;;5155131;27;19923;-44
2022/02/25 10:35:17;;;;;;;;;;;22.50;43.70;;;;;;5155709;27;19984;-46
2022/02/25 10:38:04;;;;;;;;;;;22.50;43.70;;;;;;5154460;27;19968;-42
2022/02/25 10:40:33;;;;;;;;;;;22.50;43.70;;;;;;5155457;27;19923;-44
2022/02/25 10:43:07;;;;;;;;;;;22.50;43.70;;;;;;5155184;27;19923;-45
2022/02/25 10:45:36;;;;;;;;;;;22.50;43.60;;;;;;5154670;27;20014;-42
2022/02/25 10:48:11;;;;;;;;;;;22.50;43.60;;;;;;5155369;27;19930;-44
2022/02/25 10:50:44;;;;;;;;;;;22.50;43.60;;;;;;5155260;27;19923;-44
2022/02/25 10:53:11;;;;;;;;;;;22.50;43.60;;;;;;5153974;27;19975;-46
2022/02/25 10:55:39;;;;;;;;;;;22.50;43.60;;;;;;5154920;27;20394;-42
2022/02/25 10:58:07;;;;;;;;;;;22.50;43.50;;;;;;5154872;27;19927;-43
2022/02/25 11:00:34;;;;;;;;;;;22.50;43.50;;;;;;5154470;27;19970;-43
2022/02/25 11:03:01;;;;;;;;;;;22.50;43.50;;;;;;5155145;27;20018;-41
2022/02/25 11:05:30;;;;;;;;;;;22.50;43.40;;;;;;5155704;27;19923;-45
2022/02/25 11:07:59;;;;;;;;;;;22.50;43.40;;;;;;5153737;27;19927;-46
2022/02/25 11:10:27;;;;;;;;;;;22.50;43.40;;;;;;5154830;27;20014;-42
2022/02/25 11:12:56;;;;;;;;;;;22.50;43.40;;;;;;5155475;27;19983;-44
2022/02/25 11:15:27;;;;;;;;;;;22.50;43.30;;;;;;5154058;27;19923;-44
2022/02/25 11:17:55;;;;;;;;;;;22.50;43.30;;;;;;5155093;27;19923;-42
2022/02/25 11:20:27;;;;;;;;;;;22.50;43.20;;;;;;5154474;27;19923;-47
2022/02/25 11:22:59;;;;;;;;;;;22.50;43.20;;;;;;5155896;27;20335;-44
2022/02/25 11:25:26;;;;;;;;;;;22.50;43.10;;;;;;5158553;27;20018;-43
2022/02/25 11:27:55;;;;;;;;;;;22.50;43.10;;;;;;5158805;27;19923;-43
2022/02/25 11:30:26;;;;;;;;;;;22.50;43.10;;;;;;5157793;27;19991;-42
2022/02/25 11:33:00;;;;;;;;;;;22.50;43.20;;;;;;5158443;27;19975;-44
2022/02/25 11:35:38;;;;;;;;;;;22.50;43.20;;;;;;5158321;27;20402;-43
2022/02/25 11:38:07;;;;;;;;;;;22.50;43.20;;;;;;5157651;27;19923;-43
2022/02/25 11:40:53;;;;;;;;;;;22.50;43.20;;;;;;5158345;27;19927;-45
2022/02/25 11:43:35;;;;;;;;;;;22.50;43.10;;;;;;5158345;27;20421;-44
2022/02/25 11:46:03;;;;;;;;;;;22.50;43.10;;;;;;5155856;27;19923;-42
2022/02/25 11:48:37;;;;;;;;;;;22.50;43.10;;;;;;5149414;27;19966;-44
2022/02/25 11:51:05;;;;;;;;;;;22.50;43.10;;;;;;5158182;27;19929;-43
2022/02/25 11:53:32;;;;;;;;;;;22.50;43.10;;;;;;5157153;27;20002;-41
2022/02/25 11:56:15;;;;;;;;;;;22.50;43.10;;;;;;5158299;27;19927;-42
2022/02/25 11:58:50;;;;;;;;;;;22.50;43.10;;;;;;5158338;27;19967;-42
2022/02/25 12:01:19;;;;;;;;;;;22.50;43.10;;;;;;5157172;27;19927;-42
2022/02/25 12:04:07;;;;;;;;;;;22.50;43.10;;;;;;5156762;27;20378;-42
2022/02/25 12:06:53;;;;;;;;;;;22.50;43.10;;;;;;5157748;27;19951;-42
2022/02/25 12:09:38;;;;;;;;;;;22.50;43.10;;;;;;5156642;27;19923;-44
2022/02/25 12:12:24;;;;;;;;;;;22.50;43.10;;;;;;5157758;27;19927;-42
2022/02/25 12:15:06;;;;;;;;;;;22.50;43.10;;;;;;5156987;27;19931;-44
2022/02/25 12:18:02;;;;;;;;;;;22.50;43.10;;;;;;5157771;27;20279;-45
2022/02/25 12:20:50;;;;;;;;;;;22.50;43.10;;;;;;5157459;27;19923;-44
2022/02/25 12:23:18;;;;;;;;;;;22.50;43.10;;;;;;5147371;27;19927;-42
2022/02/25 12:25:46;;;;;;;;;;;22.50;43.20;;;;;;5157476;27;19970;-44
2022/02/25 12:28:23;;;;;;;;;;;22.50;43.20;;;;;;5157323;27;19930;-47
2022/02/25 12:31:00;;;;;;;;;;;22.50;43.20;;;;;;5156973;27;19966;-43
2022/02/25 12:33:39;;;;;;;;;;;22.50;43.30;;;;;;5157091;27;19976;-45
2022/02/25 12:36:13;;;;;;;;;;;22.50;43.30;;;;;;5152629;27;19923;-43
2022/02/25 12:38:45;;;;;;;;;;;22.50;43.30;;;;;;5155551;27;20416;-48
2022/02/25 12:41:12;;;;;;;;;;;22.50;43.30;;;;;;5141122;27;19924;-49
2022/02/25 12:43:49;;;;;;;;;;;22.40;43.20;;;;;;5136385;27;19923;-48
2022/02/25 12:46:17;;;;;;;;;;;22.50;43.30;;;;;;5148390;27;19966;-50
2022/02/25 12:48:45;;;;;;;;;;;22.40;43.30;;;;;;5157163;27;19967;-46
2022/02/25 12:51:13;;;;;;;;;;;22.50;43.40;;;;;;5157101;27;19923;-45
2022/02/25 12:53:50;;;;;;;;;;;22.50;43.40;;;;;;5156037;27;19975;-49
2022/02/25 12:56:17;;;;;;;;;;;22.40;43.30;;;;;;5156813;27;19923;-49
2022/02/25 12:58:45;;;;;;;;;;;22.50;43.30;;;;;;5156679;27;19976;-46
2022/02/25 13:01:22;;;;;;;;;;;22.50;43.30;;;;;;5127488;27;19927;-43
2022/02/25 13:04:00;;;;;;;;;;;22.50;43.40;;;;;;5136271;27;19924;-46
2022/02/25 13:06:29;;;;;;;;;;;22.50;43.40;;;;;;5135937;27;20486;-44
2022/02/25 13:08:59;;;;;;;;;;;22.50;43.40;;;;;;5142185;27;19975;-46
2022/02/25 13:11:26;;;;;;;;;;;22.50;43.40;;;;;;5138578;27;19975;-45
2022/02/25 13:13:54;;;;;;;;;;;22.50;43.40;;;;;;5138212;27;20305;-43
2022/02/25 13:16:23;;;;;;;;;;;22.50;43.40;;;;;;5155719;27;19923;-49
2022/02/25 13:18:50;;;;;;;;;;;22.50;43.40;;;;;;5156375;27;19930;-49
2022/02/25 13:21:17;;;;;;;;;;;22.50;43.40;;;;;;5156113;27;19931;-43
2022/02/25 13:23:50;;;;;;;;;;;22.50;43.30;;;;;;5155180;27;19927;-43
2022/02/25 13:26:19;;;;;;;;;;;22.50;43.30;;;;;;5156605;27;19931;-43
2022/02/25 13:28:46;;;;;;;;;;;22.50;43.30;;;;;;5156434;27;19923;-46
2022/02/25 13:31:22;;;;;;;;;;;22.50;43.30;;;;;;5155705;27;19968;-48
2022/02/25 13:33:49;;;;;;;;;;;22.50;43.20;;;;;;5156453;27;19923;-46
2022/02/25 13:36:16;;;;;;;;;;;22.50;43.20;;;;;;5156053;27;20401;-45
2022/02/25 13:38:43;;;;;;;;;;;22.50;43.20;;;;;;5155214;27;20028;-43
2022/02/25 13:41:11;;;;;;;;;;;22.60;43.20;;;;;;5155904;27;19923;-46
2022/02/25 13:43:42;;;;;;;;;;;22.60;43.20;;;;;;5155929;27;19923;-48
2022/02/25 13:46:17;;;;;;;;;;;22.60;43.10;;;;;;5154528;27;19929;-46
2022/02/25 13:54:22;;;;;;;;;;;22.60;43.20;;;;;;5154650;27;20397;-46
2022/02/25 13:56:50;;;;;;;;;;;22.50;43.10;;;;;;5137497;27;19973;-41
2022/02/25 13:59:19;;;;;;;;;;;22.60;43.10;;;;;;5155397;27;19934;-45
2022/02/25 14:01:46;;;;;;;;;;;22.50;43.10;;;;;;5136586;27;20076;-44
2022/02/25 14:04:21;;;;;;;;;;;22.60;43.10;;;;;;5155463;27;20002;-45
2022/02/25 14:06:59;;;;;;;;;;;22.60;43.10;;;;;;5155829;27;19931;-44
2022/02/25 14:09:30;;;;;;;;;;;22.60;43.10;;;;;;5154525;27;19927;-43
2022/02/25 14:12:09;;;;;;;;;;;22.60;43.00;;;;;;5155847;27;19955;-44
2022/02/25 14:14:42;;;;;;;;;;;22.60;42.90;;;;;;5155293;27;19923;-44
2022/02/25 14:17:11;;;;;;;;;;;22.70;43.00;;;;;;5154642;27;20327;-44
2022/02/25 14:19:38;;;;;;;;;;;22.70;42.90;;;;;;5154922;27;19923;-47
2022/02/25 14:22:09;;;;;;;;;;;22.70;42.90;;;;;;5155026;27;19923;-43
2022/02/25 14:24:42;;;;;;;;;;;22.70;42.80;;;;;;5154007;27;20412;-42
2022/02/25 14:27:16;;;;;;;;;;;22.70;42.80;;;;;;5137519;27;19927;-44
2022/02/25 14:29:56;;;;;;;;;;;22.70;42.70;;;;;;5142703;27;19991;-43
2022/02/25 14:32:47;;;;;;;;;;;22.70;43.40;;;;;;5149234;27;20267;-45
2022/02/25 14:35:18;;;;;;;;;;;22.70;42.70;;;;;;5155417;27;19959;-44
2022/02/25 14:37:46;;;;;;;;;;;22.70;42.80;;;;;;5155502;27;19923;-43
2022/02/25 14:40:13;;;;;;;;;;;22.70;42.80;;;;;;5154414;27;19991;-44
2022/02/25 14:42:40;;;;;;;;;;;22.70;42.90;;;;;;5155112;27;19931;-43